sensor_id;sensor_type;location;lat;lon;timestamp;temperature;humidity
15274;DHT22;7738;49.532;11.156;2023-06-10T00:01:12;13.90;99.90
15274;DHT22;7738;49.532;11.156;2023-06-10T00:06:13;13.30;99.90
15274;DHT22;7738;49.532;11.156;2023-06-10T00:08:43;12.90;99.90
15274;DHT22;7738;49.532;11.156;2023-06-10T00:11:14;13.10;99.90
15274;DHT22;7738;49.532;11.156;2023-06-10T00:13:47;13.20;99.90
15274;DHT22;7738;49.532;11.156;2023-06-10T00:18:49;13.40;99.90
15274;DHT22;7738;49.532;11.156;2023-06-10T00:21:19;12.60;99.90
15274;DHT22;7738;49.532;11.156;2023-06-10T00:26:22;12.50;99.90
15274;DHT22;7738;49.532;11.156;2023-06-10T00:28:55;13.00;99.90
15274;DHT22;7738;49.532;11.156;2023-06-10T00:31:27;12.60;99.90
15274;DHT22;7738;49.532;11.156;2023-06-10T00:33:57;13.40;99.90
15274;DHT22;7738;49.532;11.156;2023-06-10T00:36:28;12.60;99.90
15274;DHT22;7738;49.532;11.156;2023-06-10T00:38:58;13.20;99.90
15274;DHT22;7738;49.532;11.156;2023-06-10T00:41:28;12.70;99.90
15274;DHT22;7738;49.532;11.156;2023-06-10T00:44:01;12.20;99.90
15274;DHT22;7738;49.532;11.156;2023-06-10T00:46:31;13.10;99.90
15274;DHT22;7738;49.532;11.156;2023-06-10T00:49:02;12.80;99.90
15274;DHT22;7738;49.532;11.156;2023-06-10T00:51:32;12.20;99.90
15274;DHT22;7738;49.532;11.156;2023-06-10T00:54:03;12.30;99.90
15274;DHT22;7738;49.532;11.156;2023-06-10T00:56:35;12.70;99.90
15274;DHT22;7738;49.532;11.156;2023-06-10T00:59:08;12.60;99.90
15274;DHT22;7738;49.532;11.156;2023-06-10T01:01:39;12.80;99.90
15274;DHT22;7738;49.532;11.156;2023-06-10T01:04:11;12.70;99.90
15274;DHT22;7738;49.532;11.156;2023-06-10T01:06:48;13.10;99.90
15274;DHT22;7738;49.532;11.156;2023-06-10T01:09:25;12.60;99.90
15274;DHT22;7738;49.532;11.156;2023-06-10T01:12:08;12.30;99.90
15274;DHT22;7738;49.532;11.156;2023-06-10T01:14:43;12.10;99.90
15274;DHT22;7738;49.532;11.156;2023-06-10T01:17:13;12.10;99.90
15274;DHT22;7738;49.532;11.156;2023-06-10T01:19:53;12.80;99.90
15274;DHT22;7738;49.532;11.156;2023-06-10T01:22:28;12.50;99.90
15274;DHT22;7738;49.532;11.156;2023-06-10T01:24:59;12.90;99.90
15274;DHT22;7738;49.532;11.156;2023-06-10T01:27:33;12.20;99.90
15274;DHT22;7738;49.532;11.156;2023-06-10T01:30:13;12.00;99.90
15274;DHT22;7738;49.532;11.156;2023-06-10T01:32:46;12.10;99.90
15274;DHT22;7738;49.532;11.156;2023-06-10T01:35:20;12.40;99.90
15274;DHT22;7738;49.532;11.156;2023-06-10T01:37:54;12.50;99.90
15274;DHT22;7738;49.532;11.156;2023-06-10T01:40:26;13.00;99.90
15274;DHT22;7738;49.532;11.156;2023-06-10T01:42:58;12.80;99.90
15274;DHT22;7738;49.532;11.156;2023-06-10T01:45:28;12.30;99.90
15274;DHT22;7738;49.532;11.156;2023-06-10T01:47:58;12.00;99.90
15274;DHT22;7738;49.532;11.156;2023-06-10T01:53:03;12.40;99.90
15274;DHT22;7738;49.532;11.156;2023-06-10T01:55:33;12.40;99.90
15274;DHT22;7738;49.532;11.156;2023-06-10T02:03:04;12.10;99.90
15274;DHT22;7738;49.532;11.156;2023-06-10T02:05:34;12.10;99.90
15274;DHT22;7738;49.532;11.156;2023-06-10T02:08:07;12.50;99.90
15274;DHT22;7738;49.532;11.156;2023-06-10T02:13:07;12.60;99.90
15274;DHT22;7738;49.532;11.156;2023-06-10T02:15:38;12.40;99.90
15274;DHT22;7738;49.532;11.156;2023-06-10T02:18:08;11.80;99.90
15274;DHT22;7738;49.532;11.156;2023-06-10T02:23:13;12.20;99.90
15274;DHT22;7738;49.532;11.156;2023-06-10T02:28:14;11.60;99.90
15274;DHT22;7738;49.532;11.156;2023-06-10T02:30:45;12.40;99.90
15274;DHT22;7738;49.532;11.156;2023-06-10T02:33:16;11.90;99.90
15274;DHT22;7738;49.532;11.156;2023-06-10T02:38:19;12.10;99.90
15274;DHT22;7738;49.532;11.156;2023-06-10T02:40:50;12.40;99.90
15274;DHT22;7738;49.532;11.156;2023-06-10T02:43:20;11.80;99.90
15274;DHT22;7738;49.532;11.156;2023-06-10T02:45:51;12.10;99.90
15274;DHT22;7738;49.532;11.156;2023-06-10T02:50:51;11.60;99.90
15274;DHT22;7738;49.532;11.156;2023-06-10T02:53:32;11.90;99.90
15274;DHT22;7738;49.532;11.156;2023-06-10T02:56:08;12.00;99.90
15274;DHT22;7738;49.532;11.156;2023-06-10T02:58:39;12.30;99.90
15274;DHT22;7738;49.532;11.156;2023-06-10T03:01:11;12.30;99.90
15274;DHT22;7738;49.532;11.156;2023-06-10T03:08:55;11.80;99.90
15274;DHT22;7738;49.532;11.156;2023-06-10T03:11:25;12.10;99.90
15274;DHT22;7738;49.532;11.156;2023-06-10T03:13:57;11.70;99.90
15274;DHT22;7738;49.532;11.156;2023-06-10T03:16:29;12.30;99.90
15274;DHT22;7738;49.532;11.156;2023-06-10T03:19:00;11.60;99.90
15274;DHT22;7738;49.532;11.156;2023-06-10T03:21:31;12.40;99.90
15274;DHT22;7738;49.532;11.156;2023-06-10T03:29:07;12.40;99.90
15274;DHT22;7738;49.532;11.156;2023-06-10T03:41:43;12.20;99.90
15274;DHT22;7738;49.532;11.156;2023-06-10T03:56:49;11.90;99.90
15274;DHT22;7738;49.532;11.156;2023-06-10T03:59:19;12.00;99.90
15274;DHT22;7738;49.532;11.156;2023-06-10T04:06:51;11.90;99.90
15274;DHT22;7738;49.532;11.156;2023-06-10T04:19:31;12.00;99.90
15274;DHT22;7738;49.532;11.156;2023-06-10T04:22:02;12.10;99.90
15274;DHT22;7738;49.532;11.156;2023-06-10T04:24:35;12.10;99.90
15274;DHT22;7738;49.532;11.156;2023-06-10T04:27:06;12.10;99.90
15274;DHT22;7738;49.532;11.156;2023-06-10T04:37:10;12.20;99.90
15274;DHT22;7738;49.532;11.156;2023-06-10T04:42:13;12.20;99.90
15274;DHT22;7738;49.532;11.156;2023-06-10T04:49:48;13.10;99.90
15274;DHT22;7738;49.532;11.156;2023-06-10T05:17:39;13.50;99.90
15274;DHT22;7738;49.532;11.156;2023-06-10T05:20:14;13.50;99.90
15274;DHT22;7738;49.532;11.156;2023-06-10T05:30:20;14.50;99.90
15274;DHT22;7738;49.532;11.156;2023-06-10T05:40:29;15.00;99.90
15274;DHT22;7738;49.532;11.156;2023-06-10T07:02:05;20.30;99.90
15274;DHT22;7738;49.532;11.156;2023-06-10T08:08:02;23.70;92.50
15274;DHT22;7738;49.532;11.156;2023-06-10T08:13:07;24.10;85.90
15274;DHT22;7738;49.532;11.156;2023-06-10T08:28:12;24.90;78.30
15274;DHT22;7738;49.532;11.156;2023-06-10T08:48:24;25.70;70.40
15274;DHT22;7738;49.532;11.156;2023-06-10T08:50:57;25.80;69.70
15274;DHT22;7738;49.532;11.156;2023-06-10T08:53:29;25.70;70.30
15274;DHT22;7738;49.532;11.156;2023-06-10T08:56:02;26.00;70.30
15274;DHT22;7738;49.532;11.156;2023-06-10T09:05:39;26.30;66.30
15274;DHT22;7738;49.532;11.156;2023-06-10T09:25:55;26.30;63.90
15274;DHT22;7738;49.532;11.156;2023-06-10T09:48:47;24.40;71.50
15274;DHT22;7738;49.532;11.156;2023-06-10T09:51:20;24.30;72.10
15274;DHT22;7738;49.532;11.156;2023-06-10T10:00:10;24.80;81.20
15274;DHT22;7738;49.532;11.156;2023-06-10T10:02:50;24.80;88.50
15274;DHT22;7738;49.532;11.156;2023-06-10T10:05:22;25.00;71.80
15274;DHT22;7738;49.532;11.156;2023-06-10T10:07:53;25.50;71.80
15274;DHT22;7738;49.532;11.156;2023-06-10T10:10:23;25.30;83.80
15274;DHT22;7738;49.532;11.156;2023-06-10T10:12:55;25.30;73.40
15274;DHT22;7738;49.532;11.156;2023-06-10T10:15:29;25.30;71.70
15274;DHT22;7738;49.532;11.156;2023-06-10T10:18:06;25.10;71.10
15274;DHT22;7738;49.532;11.156;2023-06-10T10:20:41;24.90;70.10
15274;DHT22;7738;49.532;11.156;2023-06-10T10:23:20;24.80;72.20
15274;DHT22;7738;49.532;11.156;2023-06-10T10:25:52;24.40;76.30
15274;DHT22;7738;49.532;11.156;2023-06-10T10:28:24;24.20;77.90
15274;DHT22;7738;49.532;11.156;2023-06-10T10:31:04;24.10;87.60
15274;DHT22;7738;49.532;11.156;2023-06-10T10:33:42;23.90;74.60
15274;DHT22;7738;49.532;11.156;2023-06-10T10:36:15;23.80;76.00
15274;DHT22;7738;49.532;11.156;2023-06-10T10:38:47;23.80;87.30
15274;DHT22;7738;49.532;11.156;2023-06-10T10:41:19;23.90;86.60
15274;DHT22;7738;49.532;11.156;2023-06-10T10:43:51;23.90;90.10
15274;DHT22;7738;49.532;11.156;2023-06-10T10:46:25;23.80;74.40
15274;DHT22;7738;49.532;11.156;2023-06-10T10:48:56;23.70;74.90
15274;DHT22;7738;49.532;11.156;2023-06-10T10:51:34;23.50;75.20
15274;DHT22;7738;49.532;11.156;2023-06-10T10:54:11;23.60;90.20
15274;DHT22;7738;49.532;11.156;2023-06-10T10:57:12;23.80;90.50
15274;DHT22;7738;49.532;11.156;2023-06-10T10:59:44;24.10;76.40
15274;DHT22;7738;49.532;11.156;2023-06-10T11:02:19;24.60;90.30
15274;DHT22;7738;49.532;11.156;2023-06-10T11:07:35;25.40;75.10
15274;DHT22;7738;49.532;11.156;2023-06-10T11:10:10;26.10;72.00
15274;DHT22;7738;49.532;11.156;2023-06-10T11:12:58;26.00;90.00
15274;DHT22;7738;49.532;11.156;2023-06-10T11:15:29;25.90;88.60
15274;DHT22;7738;49.532;11.156;2023-06-10T11:18:13;26.60;71.20
15274;DHT22;7738;49.532;11.156;2023-06-10T11:20:57;26.90;82.70
15274;DHT22;7738;49.532;11.156;2023-06-10T11:23:42;28.00;63.80
15274;DHT22;7738;49.532;11.156;2023-06-10T11:26:14;28.80;62.10
15274;DHT22;7738;49.532;11.156;2023-06-10T11:29:03;29.30;74.80
15274;DHT22;7738;49.532;11.156;2023-06-10T11:31:46;28.20;70.80
15274;DHT22;7738;49.532;11.156;2023-06-10T11:34:25;27.60;73.10
15274;DHT22;7738;49.532;11.156;2023-06-10T11:41:58;29.50;75.40
15274;DHT22;7738;49.532;11.156;2023-06-10T11:44:28;29.70;74.70
15274;DHT22;7738;49.532;11.156;2023-06-10T11:47:01;30.10;78.60
15274;DHT22;7738;49.532;11.156;2023-06-10T11:49:34;29.40;56.20
15274;DHT22;7738;49.532;11.156;2023-06-10T11:52:05;28.80;61.00
15274;DHT22;7738;49.532;11.156;2023-06-10T11:57:05;28.90;67.60
15274;DHT22;7738;49.532;11.156;2023-06-10T11:59:35;29.70;59.70
15274;DHT22;7738;49.532;11.156;2023-06-10T12:02:14;30.10;67.20
15274;DHT22;7738;49.532;11.156;2023-06-10T12:04:49;30.00;55.00
15274;DHT22;7738;49.532;11.156;2023-06-10T12:07:19;29.70;55.00
15274;DHT22;7738;49.532;11.156;2023-06-10T12:09:59;29.10;55.50
15274;DHT22;7738;49.532;11.156;2023-06-10T12:15:23;27.60;57.60
15274;DHT22;7738;49.532;11.156;2023-06-10T12:20:30;27.40;59.20
15274;DHT22;7738;49.532;11.156;2023-06-10T12:28:04;29.00;78.90
15274;DHT22;7738;49.532;11.156;2023-06-10T12:33:16;29.60;54.20
15274;DHT22;7738;49.532;11.156;2023-06-10T12:35:52;29.80;65.20
15274;DHT22;7738;49.532;11.156;2023-06-10T12:40:54;30.70;80.20
15274;DHT22;7738;49.532;11.156;2023-06-10T12:51:00;31.10;52.30
15274;DHT22;7738;49.532;11.156;2023-06-10T12:56:00;30.80;58.30
15274;DHT22;7738;49.532;11.156;2023-06-10T13:06:05;28.90;52.50
15274;DHT22;7738;49.532;11.156;2023-06-10T13:08:35;28.60;62.20
15274;DHT22;7738;49.532;11.156;2023-06-10T13:13:36;27.80;56.70
15274;DHT22;7738;49.532;11.156;2023-06-10T13:16:07;27.50;59.00
15274;DHT22;7738;49.532;11.156;2023-06-10T13:21:10;27.30;78.60
15274;DHT22;7738;49.532;11.156;2023-06-10T13:23:40;27.40;74.90
15274;DHT22;7738;49.532;11.156;2023-06-10T13:26:14;26.50;60.00
15274;DHT22;7738;49.532;11.156;2023-06-10T13:36:21;27.10;56.40
15274;DHT22;7738;49.532;11.156;2023-06-10T13:43:55;28.70;57.10
15274;DHT22;7738;49.532;11.156;2023-06-10T13:48:56;27.90;62.30
15274;DHT22;7738;49.532;11.156;2023-06-10T13:51:29;27.70;56.30
15274;DHT22;7738;49.532;11.156;2023-06-10T13:56:30;28.90;55.20
15274;DHT22;7738;49.532;11.156;2023-06-10T13:59:05;30.00;59.40
15274;DHT22;7738;49.532;11.156;2023-06-10T14:01:35;30.00;58.40
15274;DHT22;7738;49.532;11.156;2023-06-10T14:04:05;30.50;61.10
15274;DHT22;7738;49.532;11.156;2023-06-10T14:06:38;30.10;53.10
15274;DHT22;7738;49.532;11.156;2023-06-10T14:11:39;28.20;67.00
15274;DHT22;7738;49.532;11.156;2023-06-10T14:14:09;28.00;70.60
15274;DHT22;7738;49.532;11.156;2023-06-10T14:16:39;27.70;68.00
15274;DHT22;7738;49.532;11.156;2023-06-10T14:21:43;27.90;70.30
15274;DHT22;7738;49.532;11.156;2023-06-10T14:24:14;28.30;58.00
15274;DHT22;7738;49.532;11.156;2023-06-10T14:26:44;28.40;61.30
15274;DHT22;7738;49.532;11.156;2023-06-10T14:29:14;28.90;68.10
15274;DHT22;7738;49.532;11.156;2023-06-10T14:34:16;29.20;68.10
15274;DHT22;7738;49.532;11.156;2023-06-10T14:36:49;28.80;55.10
15274;DHT22;7738;49.532;11.156;2023-06-10T14:39:19;28.50;71.70
15274;DHT22;7738;49.532;11.156;2023-06-10T14:51:53;27.00;59.20
15274;DHT22;7738;49.532;11.156;2023-06-10T15:07:01;27.70;58.70
15274;DHT22;7738;49.532;11.156;2023-06-10T15:17:03;28.00;79.20
15274;DHT22;7738;49.532;11.156;2023-06-10T15:22:07;27.30;58.10
15274;DHT22;7738;49.532;11.156;2023-06-10T19:08:56;21.80;77.40
15274;DHT22;7738;49.532;11.156;2023-06-10T19:24:03;22.10;82.50
15274;DHT22;7738;49.532;11.156;2023-06-10T19:34:08;21.50;83.90
15274;DHT22;7738;49.532;11.156;2023-06-10T19:36:38;21.30;84.10
15274;DHT22;7738;49.532;11.156;2023-06-10T19:44:12;20.40;81.80
15274;DHT22;7738;49.532;11.156;2023-06-10T19:46:45;20.80;82.50
15274;DHT22;7738;49.532;11.156;2023-06-10T19:49:15;20.50;84.70
15274;DHT22;7738;49.532;11.156;2023-06-10T19:59:20;20.80;84.40
15274;DHT22;7738;49.532;11.156;2023-06-10T20:01:50;20.10;84.80
15274;DHT22;7738;49.532;11.156;2023-06-10T20:04:21;20.40;85.70
15274;DHT22;7738;49.532;11.156;2023-06-10T20:06:51;19.80;85.50
15274;DHT22;7738;49.532;11.156;2023-06-10T20:09:24;20.10;86.50
15274;DHT22;7738;49.532;11.156;2023-06-10T20:14:24;19.60;87.30
15274;DHT22;7738;49.532;11.156;2023-06-10T20:16:54;20.10;88.50
15274;DHT22;7738;49.532;11.156;2023-06-10T20:19:25;19.50;88.80
15274;DHT22;7738;49.532;11.156;2023-06-10T20:21:55;19.40;89.00
15274;DHT22;7738;49.532;11.156;2023-06-10T20:24:28;19.50;88.80
15274;DHT22;7738;49.532;11.156;2023-06-10T20:29:29;19.00;90.60
15274;DHT22;7738;49.532;11.156;2023-06-10T20:31:59;19.40;90.30
15274;DHT22;7738;49.532;11.156;2023-06-10T20:34:29;19.20;90.30
15274;DHT22;7738;49.532;11.156;2023-06-10T20:36:59;19.20;90.50
15274;DHT22;7738;49.532;11.156;2023-06-10T20:39:32;19.20;90.20
15274;DHT22;7738;49.532;11.156;2023-06-10T20:44:33;19.20;90.70
15274;DHT22;7738;49.532;11.156;2023-06-10T20:47:04;18.60;90.70
15274;DHT22;7738;49.532;11.156;2023-06-10T20:49:34;19.40;91.00
15274;DHT22;7738;49.532;11.156;2023-06-10T20:52:04;19.10;90.90
15274;DHT22;7738;49.532;11.156;2023-06-10T20:54:37;19.00;91.10
15274;DHT22;7738;49.532;11.156;2023-06-10T20:57:07;19.30;91.60
15274;DHT22;7738;49.532;11.156;2023-06-10T20:59:38;19.20;91.70
15274;DHT22;7738;49.532;11.156;2023-06-10T21:04:38;18.70;92.10
15274;DHT22;7738;49.532;11.156;2023-06-10T21:09:41;18.70;92.30
15274;DHT22;7738;49.532;11.156;2023-06-10T21:12:11;18.80;93.00
15274;DHT22;7738;49.532;11.156;2023-06-10T21:14:42;18.50;93.20
15274;DHT22;7738;49.532;11.156;2023-06-10T21:17:12;18.70;93.80
15274;DHT22;7738;49.532;11.156;2023-06-10T21:19:42;18.60;94.10
15274;DHT22;7738;49.532;11.156;2023-06-10T21:22:12;18.10;94.40
15274;DHT22;7738;49.532;11.156;2023-06-10T21:24:44;18.60;96.90
15274;DHT22;7738;49.532;11.156;2023-06-10T21:27:14;18.10;97.50
15274;DHT22;7738;49.532;11.156;2023-06-10T21:29:45;18.80;96.00
15274;DHT22;7738;49.532;11.156;2023-06-10T21:32:16;18.60;98.10
15274;DHT22;7738;49.532;11.156;2023-06-10T21:34:46;17.80;96.40
15274;DHT22;7738;49.532;11.156;2023-06-10T21:39:49;17.80;99.30
15274;DHT22;7738;49.532;11.156;2023-06-10T21:42:19;18.20;97.40
15274;DHT22;7738;49.532;11.156;2023-06-10T21:44:49;17.40;97.70
15274;DHT22;7738;49.532;11.156;2023-06-10T21:49:50;17.20;98.40
15274;DHT22;7738;49.532;11.156;2023-06-10T21:52:20;17.40;99.30
15274;DHT22;7738;49.532;11.156;2023-06-10T21:54:53;17.60;99.90
15274;DHT22;7738;49.532;11.156;2023-06-10T21:57:24;17.90;99.90
15274;DHT22;7738;49.532;11.156;2023-06-10T22:02:25;17.50;99.90
15274;DHT22;7738;49.532;11.156;2023-06-10T22:04:56;17.40;99.90
15274;DHT22;7738;49.532;11.156;2023-06-10T22:07:26;17.50;99.90
15274;DHT22;7738;49.532;11.156;2023-06-10T22:09:59;17.30;99.90
15274;DHT22;7738;49.532;11.156;2023-06-10T22:12:30;17.30;99.90
15274;DHT22;7738;49.532;11.156;2023-06-10T22:15:00;17.00;99.90
15274;DHT22;7738;49.532;11.156;2023-06-10T22:17:31;17.20;99.90
15274;DHT22;7738;49.532;11.156;2023-06-10T22:22:33;17.00;99.90
15274;DHT22;7738;49.532;11.156;2023-06-10T22:25:06;17.10;99.90
15274;DHT22;7738;49.532;11.156;2023-06-10T22:27:37;17.00;99.90
15274;DHT22;7738;49.532;11.156;2023-06-10T22:30:08;16.80;99.90
15274;DHT22;7738;49.532;11.156;2023-06-10T22:32:38;17.40;99.90
15274;DHT22;7738;49.532;11.156;2023-06-10T22:35:10;16.80;99.90
15274;DHT22;7738;49.532;11.156;2023-06-10T22:37:40;17.40;99.90
15274;DHT22;7738;49.532;11.156;2023-06-10T22:40:13;16.50;99.90
15274;DHT22;7738;49.532;11.156;2023-06-10T22:42:43;16.70;99.90
15274;DHT22;7738;49.532;11.156;2023-06-10T22:52:44;16.90;99.90
15274;DHT22;7738;49.532;11.156;2023-06-10T22:55:17;16.60;99.90
15274;DHT22;7738;49.532;11.156;2023-06-10T22:57:48;17.60;99.90
15274;DHT22;7738;49.532;11.156;2023-06-10T23:00:18;16.80;99.90
15274;DHT22;7738;49.532;11.156;2023-06-10T23:05:19;17.10;99.90
15274;DHT22;7738;49.532;11.156;2023-06-10T23:07:49;16.80;99.90
15274;DHT22;7738;49.532;11.156;2023-06-10T23:10:22;16.70;99.90
15274;DHT22;7738;49.532;11.156;2023-06-10T23:12:52;16.40;99.90
15274;DHT22;7738;49.532;11.156;2023-06-10T23:15:22;16.90;99.90
15274;DHT22;7738;49.532;11.156;2023-06-10T23:17:52;16.70;99.90
15274;DHT22;7738;49.532;11.156;2023-06-10T23:20:23;15.90;99.90
15274;DHT22;7738;49.532;11.156;2023-06-10T23:22:53;15.90;99.90
15274;DHT22;7738;49.532;11.156;2023-06-10T23:25:25;16.30;99.90
15274;DHT22;7738;49.532;11.156;2023-06-10T23:27:55;15.80;99.90
15274;DHT22;7738;49.532;11.156;2023-06-10T23:30:26;16.30;99.90
15274;DHT22;7738;49.532;11.156;2023-06-10T23:32:56;15.80;99.90
15274;DHT22;7738;49.532;11.156;2023-06-10T23:40:29;16.00;99.90
15274;DHT22;7738;49.532;11.156;2023-06-10T23:42:59;16.40;99.90
15274;DHT22;7738;49.532;11.156;2023-06-10T23:45:30;16.20;99.90
15274;DHT22;7738;49.532;11.156;2023-06-10T23:50:31;16.30;99.90
15274;DHT22;7738;49.532;11.156;2023-06-10T23:53:03;15.70;99.90
15274;DHT22;7738;49.532;11.156;2023-06-10T23:55:36;16.20;99.90
